DAH1007 LFPO-DAAG
Flight info
| Callsign | DAH1007 |
|---|---|
| Flight time | N/A |
| Altitude | 33000 |
| Route | MONOT DCT TRARE DCT ADEKA DCT MOKDI DCT MEN DCT BADAM DCT KANIG DCT KENAS DCT POS DCT TALEN DCT XESPA DCT GENIO N859 MOGIL UB31 ZEM |
| Aircraft | B722/M-SDFWY/C |
Departure
| Time | N/A |
|---|---|
| Airport | Paris-Orly Airport (LFPO) |
Arrival
| Time | 2026-05-03 20:19 |
|---|---|
| Airport | Houari Boumediene Airport (DAAG) |
| Time | Latitude | Longitude | Altitude | Speed | Heading |
|---|---|---|---|---|---|
| 2026-05-03 20:15 | 36.81945 | 3.42693 | 2976 ft | 173 kts | 231° |
| 2026-05-03 20:15 | 36.81214 | 3.41479 | 2977 ft | 176 kts | 230° |
| 2026-05-03 20:15 | 36.80463 | 3.40251 | 2959 ft | 181 kts | 231° |
| 2026-05-03 20:15 | 36.79682 | 3.38950 | 2737 ft | 190 kts | 230° |
| 2026-05-03 20:16 | 36.78923 | 3.37708 | 2473 ft | 170 kts | 231° |
| 2026-05-03 20:16 | 36.78252 | 3.36591 | 2261 ft | 152 kts | 229° |
| 2026-05-03 20:16 | 36.77640 | 3.35598 | 2079 ft | 138 kts | 231° |
| 2026-05-03 20:16 | 36.77074 | 3.34650 | 1904 ft | 137 kts | 229° |
| 2026-05-03 20:17 | 36.76483 | 3.33696 | 1736 ft | 142 kts | 231° |
| 2026-05-03 20:17 | 36.75886 | 3.32693 | 1552 ft | 145 kts | 230° |
| 2026-05-03 20:17 | 36.75259 | 3.31692 | 1363 ft | 148 kts | 231° |
| 2026-05-03 20:17 | 36.74651 | 3.30646 | 1175 ft | 150 kts | 233° |
| 2026-05-03 20:18 | 36.74039 | 3.29631 | 966 ft | 143 kts | 231° |
| 2026-05-03 20:18 | 36.73440 | 3.28663 | 771 ft | 141 kts | 232° |
| 2026-05-03 20:18 | 36.72823 | 3.27665 | 603 ft | 148 kts | 233° |
| 2026-05-03 20:18 | 36.72200 | 3.26636 | 406 ft | 149 kts | 235° |
| 2026-05-03 20:19 | 36.71587 | 3.25635 | 219 ft | 140 kts | 235° |
| 2026-05-03 20:19 | 36.71020 | 3.24688 | 84 ft | 128 kts | 233° |
| 2026-05-03 20:19 | 36.70596 | 3.24003 | 83 ft | 76 kts | 233° |
| 2026-05-03 20:19 | 36.70352 | 3.23602 | 81 ft | 42 kts | 232° |
| 2026-05-03 20:20 | 36.70205 | 3.23360 | 82 ft | 29 kts | 233° |
| 2026-05-03 20:20 | 36.70146 | 3.23164 | 84 ft | 25 kts | 262° |
| 2026-05-03 20:20 | 36.70123 | 3.22932 | 68 ft | 29 kts | 263° |
| 2026-05-03 20:20 | 36.70105 | 3.22766 | 69 ft | 9 kts | 262° |
| 2026-05-03 20:21 | 36.70095 | 3.22675 | 70 ft | 12 kts | 262° |
| 2026-05-03 20:21 | 36.70059 | 3.22571 | 71 ft | 15 kts | 234° |
| 2026-05-03 20:21 | 36.69990 | 3.22455 | 73 ft | 18 kts | 233° |
| 2026-05-03 20:21 | 36.69912 | 3.22324 | 71 ft | 21 kts | 234° |
| 2026-05-03 20:22 | 36.69824 | 3.22169 | 70 ft | 23 kts | 236° |
| 2026-05-03 20:22 | 36.69720 | 3.22004 | 73 ft | 25 kts | 231° |
| 2026-05-03 20:22 | 36.69630 | 3.21862 | 70 ft | 12 kts | 232° |
| 2026-05-03 20:22 | 36.69585 | 3.21787 | 67 ft | 11 kts | 248° |
| 2026-05-03 20:23 | 36.69581 | 3.21681 | 66 ft | 13 kts | 267° |
| 2026-05-03 20:23 | 36.69556 | 3.21564 | 73 ft | 13 kts | 252° |
| 2026-05-03 20:23 | 36.69542 | 3.21460 | 73 ft | 13 kts | 290° |
| 2026-05-03 20:23 | 36.69621 | 3.21406 | 71 ft | 14 kts | 341° |
| 2026-05-03 20:24 | 36.69669 | 3.21396 | 66 ft | 4 kts | 37° |
| 2026-05-03 20:24 | 36.69689 | 3.21434 | 73 ft | 6 kts | 66° |
| 2026-05-03 20:24 | 36.69690 | 3.21440 | 70 ft | 0 kts | 85° |
| 2026-05-03 20:24 | 36.69687 | 3.21453 | 71 ft | 2 kts | 128° |
| 2026-05-03 20:25 | 36.69682 | 3.21455 | 71 ft | 2 kts | 192° |
| 2026-05-03 20:25 | 36.69674 | 3.21453 | 66 ft | 0 kts | 192° |
| 2026-05-03 20:37 | 36.69670 | 3.21455 | 63 ft | 0 kts | 207° |